Riverside Municipal Airport
KRAL : now visible

Airfield :











YOU CAN JOIN US ON...

 
LOGIN :

Register | Disclaimer

   EN    FR    IT 

 









Legend :    VFR   Marginal VFR   IFR   Intensive IFR   Very Intensive IFR
Visi :
Ceiling :
>= 8 km
>= 3000ft
5 to 8 km
1000 to 3000 ft
1500m to 5 km
500 to 1000 ft
800 to 1500m
200 to 500 ft
< 800m
< 200 ft
Symbols :   Thunderstorms  Fog  Heavy snow  Heavy precipitations  Wind > 20 kt






- Airport Elevation : 819 ft


KRAL - Riverside Municipal

CURRENT METAR :
  • 261753Z 29004KT 5SM HZ CLR 22/16 A2996 RMK AO2 SLP131 T02220156 10222 20156 58001

EXPIRED METARs :
  • 261653Z 29004KT 5SM HZ CLR 19/15 A2997 RMK AO2 SLP134 T01890150
  • 261627Z 25003KT 3SM BR CLR 17/14 A2997 RMK AO2 T01670144
  • 261553Z 00000KT 1/4SM FG VV001 16/15 A2997 RMK AO2 SLP135 T01560150
  • 261520Z 00000KT 1/4SM FG OVC003 16/15 A2997 RMK AO2 T01610150

TAF N/A
KZLA FIR / North America



MET'MAP, your aeronautical weather chart ! - Copyright ORBIFLY December 2007 - Disclaimer

ORBIFLY MET'MAP TEAM :

Programming & Development : Alexandra Zaïnal
Concept & original design : Baudouin d'Aumeries
Assistance for programming : Marc-Olivier Méhu
Technical & hardware support : Manuel Goepfert

Contact : metmap@orbifly.com




SOURCES & CREDITS :

   NOAA       Earth
Advisory